Time;durP1;ratioP1;P1;durP2;ratioP2;P2;SDS_P1;SDS_P2;PMS_P1;PMS_P2;Temp;Humidity;BMP_temperature;BMP_pressure;BME280_temperature;BME280_humidity;BME280_pressure;Samples;Min_cycle;Max_cycle;Signal;HPM_P1;HPM_P2
2023/05/30 07:07:01;;;;;;;3.10;1.00;;;15.00;69.30;;;;;;6158898;23;20091;-64
2023/05/30 07:09:27;;;;;;;4.43;1.30;;;15.00;69.40;;;;;;6159083;23;20079;-63
2023/05/30 07:11:53;;;;;;;3.90;1.05;;;15.00;69.30;;;;;;6158640;23;20014;-64
2023/05/30 07:14:19;;;;;;;4.97;1.17;;;15.00;69.30;;;;;;6158971;23;20437;-64
2023/05/30 07:16:45;;;;;;;4.00;1.17;;;15.00;69.20;;;;;;6132827;23;20022;-64
2023/05/30 07:19:11;;;;;;;2.50;0.85;;;15.00;69.10;;;;;;6158024;23;20029;-66
2023/05/30 07:21:37;;;;;;;4.40;1.25;;;15.00;69.00;;;;;;6158670;23;20088;-63
2023/05/30 07:24:03;;;;;;;3.55;1.20;;;15.00;69.00;;;;;;6158856;23;20460;-65
2023/05/30 07:26:29;;;;;;;3.47;0.98;;;15.10;68.90;;;;;;6158501;23;20429;-63
2023/05/30 07:28:56;;;;;;;3.60;1.38;;;15.00;69.00;;;;;;6159236;23;20025;-65
2023/05/30 07:31:22;;;;;;;5.07;1.27;;;15.00;69.10;;;;;;6159270;23;20017;-65
2023/05/30 07:33:47;;;;;;;6.20;1.17;;;15.00;69.30;;;;;;6158960;23;20101;-66
2023/05/30 07:36:13;;;;;;;4.32;1.10;;;15.00;70.00;;;;;;6159625;23;20040;-65
2023/05/30 07:38:39;;;;;;;4.43;1.10;;;14.90;70.60;;;;;;6158265;23;20099;-66
2023/05/30 07:41:04;;;;;;;2.63;0.88;;;14.90;71.00;;;;;;6158731;23;20022;-65
2023/05/30 07:43:30;;;;;;;4.95;0.80;;;14.90;71.90;;;;;;6159231;23;20101;-65
2023/05/30 07:45:56;;;;;;;8.50;1.90;;;14.80;72.20;;;;;;6158644;23;20022;-65
2023/05/30 07:48:21;;;;;;;5.00;1.42;;;14.80;72.10;;;;;;6158688;23;20022;-65
2023/05/30 07:50:47;;;;;;;9.05;1.25;;;14.80;72.00;;;;;;6159025;23;20429;-65
2023/05/30 07:53:13;;;;;;;8.00;1.05;;;14.80;72.20;;;;;;6159565;23;20013;-64
2023/05/30 07:55:39;;;;;;;3.92;0.95;;;14.90;72.60;;;;;;6158274;23;20314;-66
2023/05/30 07:58:05;;;;;;;3.08;0.77;;;14.90;72.50;;;;;;6158557;23;20064;-66
2023/05/30 08:00:31;;;;;;;5.32;0.98;;;14.90;71.90;;;;;;6158588;23;20021;-66
2023/05/30 08:02:56;;;;;;;4.35;0.70;;;14.90;72.00;;;;;;6158238;23;20355;-66
2023/05/30 08:05:22;;;;;;;6.03;0.93;;;14.90;71.90;;;;;;6158897;23;20017;-65
2023/05/30 08:07:48;;;;;;;3.40;0.82;;;14.90;71.70;;;;;;6158518;23;20040;-65
2023/05/30 08:10:14;;;;;;;4.53;0.63;;;14.90;71.40;;;;;;6158421;23;20036;-66
2023/05/30 08:12:40;;;;;;;2.47;0.30;;;14.90;71.10;;;;;;6158558;23;20021;-67
2023/05/30 08:15:07;;;;;;;6.10;1.00;;;14.90;71.00;;;;;;6158591;23;20017;-64
2023/05/30 08:17:33;;;;;;;9.05;0.82;;;15.00;70.90;;;;;;6158816;23;20423;-66
2023/05/30 08:20:00;;;;;;;5.25;0.57;;;15.00;70.70;;;;;;6157909;23;20036;-66
2023/05/30 08:22:26;;;;;;;18.75;1.65;;;15.00;69.90;;;;;;6158574;23;20326;-65
2023/05/30 08:24:59;;;;;;;8.20;1.15;;;15.10;69.80;;;;;;6158287;23;20018;-66
2023/05/30 08:27:25;;;;;;;5.63;1.00;;;15.10;69.80;;;;;;6107606;23;20025;-66
2023/05/30 08:29:51;;;;;;;8.82;0.75;;;15.10;69.90;;;;;;6132777;23;20049;-66
2023/05/30 08:32:17;;;;;;;7.32;0.77;;;15.10;70.30;;;;;;6158144;23;20018;-65
2023/05/30 08:34:44;;;;;;;6.03;0.75;;;15.10;70.60;;;;;;6157749;23;20052;-66
2023/05/30 08:37:10;;;;;;;5.35;0.60;;;15.10;70.50;;;;;;6158906;23;20029;-66
2023/05/30 08:39:36;;;;;;;3.30;0.50;;;15.10;70.40;;;;;;6157865;23;20366;-70
2023/05/30 08:42:01;;;;;;;1.90;0.30;;;15.10;70.10;;;;;;6158145;23;20053;-67
2023/05/30 08:44:28;;;;;;;5.30;0.80;;;15.10;70.10;;;;;;6158197;23;20032;-66
2023/05/30 08:46:55;;;;;;;2.22;0.65;;;15.10;70.40;;;;;;6157749;23;20017;-66
2023/05/30 08:49:22;;;;;;;1.98;0.20;;;15.10;70.30;;;;;;6158135;23;20018;-66
2023/05/30 08:51:49;;;;;;;3.55;0.75;;;15.10;70.40;;;;;;6158136;23;20017;-66
2023/05/30 08:54:22;;;;;;;2.60;0.52;;;15.00;70.40;;;;;;6157742;23;20057;-67
2023/05/30 08:57:10;;;;;;;2.23;0.40;;;15.10;70.50;;;;;;6158201;23;20017;-66
2023/05/30 08:59:36;;;;;;;1.77;0.28;;;15.10;70.70;;;;;;6157999;23;20024;-66
2023/05/30 09:02:03;;;;;;;2.20;0.20;;;15.10;70.70;;;;;;6158268;23;20088;-67
2023/05/30 09:04:30;;;;;;;1.05;0.45;;;15.10;70.70;;;;;;6158032;23;20017;-67
2023/05/30 09:06:57;;;;;;;1.58;0.28;;;15.10;70.40;;;;;;6157459;23;20021;-67
2023/05/30 09:09:23;;;;;;;3.75;0.30;;;15.10;70.20;;;;;;6158038;23;20033;-66
2023/05/30 09:11:52;;;;;;;2.47;0.38;;;15.10;70.40;;;;;;6157971;23;20017;-69
2023/05/30 09:14:18;;;;;;;4.20;0.50;;;15.10;70.10;;;;;;6157852;23;20426;-69
2023/05/30 09:16:43;;;;;;;1.75;0.30;;;15.10;70.00;;;;;;6158633;23;20017;-66
2023/05/30 09:19:09;;;;;;;2.72;0.50;;;15.10;70.00;;;;;;6157724;23;20405;-64
2023/05/30 09:21:36;;;;;;;2.60;0.32;;;15.20;70.10;;;;;;6157910;23;20027;-68
2023/05/30 09:24:05;;;;;;;4.78;0.73;;;15.20;69.80;;;;;;6157582;23;20028;-65
2023/05/30 09:26:34;;;;;;;2.53;0.55;;;15.20;69.80;;;;;;6157820;23;20096;-65
2023/05/30 09:29:10;;;;;;;4.43;0.70;;;15.20;69.60;;;;;;6157632;23;20014;-66
2023/05/30 09:31:37;;;;;;;2.55;0.77;;;15.20;69.50;;;;;;6157710;23;20017;-66
2023/05/30 09:34:03;;;;;;;1.67;0.70;;;15.20;69.40;;;;;;6158606;23;20313;-66
2023/05/30 09:36:29;;;;;;;4.10;0.60;;;15.10;69.10;;;;;;6157962;23;20017;-65
2023/05/30 09:38:59;;;;;;;2.55;0.60;;;15.10;69.00;;;;;;6158271;23;20021;-65
2023/05/30 09:41:27;;;;;;;3.25;0.80;;;15.10;68.90;;;;;;6160217;23;20022;-66
2023/05/30 09:43:54;;;;;;;8.57;1.38;;;15.10;68.80;;;;;;6159462;23;20029;-66
2023/05/30 09:46:24;;;;;;;10.93;1.98;;;15.10;68.90;;;;;;6134126;23;20072;-66
2023/05/30 09:48:50;;;;;;;8.18;1.17;;;15.10;69.00;;;;;;6133871;23;20022;-65
2023/05/30 09:51:18;;;;;;;18.10;2.15;;;15.20;69.10;;;;;;6159835;23;20096;-65
2023/05/30 09:54:04;;;;;;;10.85;1.20;;;15.10;69.30;;;;;;6160444;23;20019;-65
2023/05/30 09:56:38;;;;;;;6.72;1.10;;;15.10;69.40;;;;;;6159787;23;20092;-65
2023/05/30 09:59:11;;;;;;;;;;;15.10;69.30;;;;;;6159764;23;20422;-66
2023/05/30 10:01:41;;;;;;;7.35;1.40;;;15.10;69.40;;;;;;6159842;23;19928;-65
2023/05/30 10:04:11;;;;;;;4.03;0.55;;;15.10;69.30;;;;;;6160012;23;20026;-65
2023/05/30 10:06:41;;;;;;;3.53;0.60;;;15.10;69.30;;;;;;6159229;23;20403;-65
2023/05/30 10:09:09;;;;;;;2.05;0.30;;;15.00;69.30;;;;;;6160319;23;20014;-65
2023/05/30 10:11:39;;;;;;;4.18;0.98;;;15.10;69.30;;;;;;6160305;23;20021;-65
2023/05/30 10:14:09;;;;;;;2.63;1.00;;;15.10;69.50;;;;;;6160062;23;20017;-64
2023/05/30 10:16:40;;;;;;;3.38;0.60;;;15.10;69.40;;;;;;6159252;23;20524;-65
2023/05/30 10:19:12;;;;;;;2.65;0.85;;;15.20;69.40;;;;;;6159370;23;20096;-65
2023/05/30 10:21:38;;;;;;;1.88;0.50;;;15.20;69.30;;;;;;6159522;23;20096;-65
2023/05/30 10:24:08;;;;;;;3.95;0.90;;;15.20;69.20;;;;;;6159549;23;20021;-65
2023/05/30 10:26:36;;;;;;;2.92;0.70;;;15.20;68.90;;;;;;6158928;23;20434;-65
2023/05/30 10:29:07;;;;;;;1.80;0.73;;;15.30;68.90;;;;;;6158865;23;20318;-65
2023/05/30 10:31:34;;;;;;;3.33;0.73;;;15.30;68.90;;;;;;6159460;23;20014;-64
2023/05/30 10:34:04;;;;;;;1.50;0.40;;;15.30;68.90;;;;;;6159466;23;20018;-65
2023/05/30 10:36:32;;;;;;;3.90;0.60;;;15.30;68.90;;;;;;6159353;23;20025;-65
2023/05/30 10:39:19;;;;;;;3.78;0.80;;;15.40;68.80;;;;;;6159526;23;20022;-65
2023/05/30 10:41:56;;;;;;;2.15;0.50;;;15.30;68.70;;;;;;6159480;23;20033;-64
2023/05/30 10:44:41;;;;;;;1.50;0.47;;;15.40;68.70;;;;;;6159231;23;20052;-65
2023/05/30 10:47:35;;;;;;;1.80;0.45;;;15.40;68.60;;;;;;6159311;23;20125;-65
2023/05/30 10:50:07;;;;;;;1.15;0.30;;;15.40;68.60;;;;;;6159413;23;20021;-65
2023/05/30 10:52:33;;;;;;;0.77;0.40;;;15.40;68.60;;;;;;6160133;23;20017;-64
2023/05/30 10:55:00;;;;;;;2.30;0.30;;;15.40;68.50;;;;;;6159236;23;20322;-64
2023/05/30 10:57:31;;;;;;;1.30;0.40;;;15.40;68.50;;;;;;6159881;23;20417;-65
2023/05/30 11:00:09;;;;;;;1.58;0.43;;;15.40;68.40;;;;;;6158889;23;20021;-64
2023/05/30 11:02:38;;;;;;;0.60;0.28;;;15.40;68.40;;;;;;6158871;23;20449;-65
2023/05/30 11:05:06;;;;;;;0.95;0.40;;;15.50;68.50;;;;;;6133938;23;20326;-64
2023/05/30 11:07:42;;;;;;;1.77;0.40;;;15.50;68.40;;;;;;6158963;23;20092;-65
2023/05/30 11:10:13;;;;;;;0.95;0.43;;;15.50;68.40;;;;;;6158606;23;20022;-65
2023/05/30 11:12:45;;;;;;;3.60;0.50;;;15.50;68.40;;;;;;6158835;23;20067;-65
2023/05/30 11:15:32;;;;;;;1.10;0.40;;;15.50;68.30;;;;;;6158955;23;20092;-65
2023/05/30 11:17:58;;;;;;;1.83;0.52;;;15.50;68.30;;;;;;6159205;23;20018;-66
2023/05/30 11:20:24;;;;;;;3.60;0.60;;;15.50;68.30;;;;;;6159122;23;20064;-65
2023/05/30 11:23:05;;;;;;;2.45;0.30;;;15.50;68.20;;;;;;6158766;23;20284;-65
2023/05/30 11:25:32;;;;;;;0.70;0.20;;;15.50;68.20;;;;;;6158908;23;20347;-65
2023/05/30 11:28:04;;;;;;;1.10;0.80;;;15.50;68.20;;;;;;6158945;23;20033;-64
2023/05/30 11:30:40;;;;;;;2.03;0.40;;;15.50;68.20;;;;;;6159234;23;20018;-66
2023/05/30 11:33:17;;;;;;;3.42;0.30;;;15.50;68.10;;;;;;6158899;23;20051;-64
2023/05/30 11:35:48;;;;;;;2.17;0.47;;;15.60;68.20;;;;;;6158141;23;20021;-65
2023/05/30 11:38:21;;;;;;;2.08;0.50;;;15.50;68.10;;;;;;6158232;23;20021;-65
2023/05/30 11:40:48;;;;;;;0.87;0.30;;;15.60;68.10;;;;;;6158901;23;20021;-65
2023/05/30 11:43:16;;;;;;;1.30;0.40;;;15.60;68.10;;;;;;6158770;23;20017;-64
2023/05/30 11:45:44;;;;;;;0.68;0.38;;;15.50;68.00;;;;;;6157763;23;20096;-65
2023/05/30 11:48:10;;;;;;;1.77;0.55;;;15.60;68.00;;;;;;6158383;23;20017;-65
2023/05/30 11:50:38;;;;;;;2.35;0.52;;;15.60;68.00;;;;;;6159168;23;20100;-65
2023/05/30 11:53:16;;;;;;;0.93;0.40;;;15.60;68.50;;;;;;6158566;23;20018;-65
2023/05/30 11:55:48;;;;;;;1.10;0.30;;;15.60;67.90;;;;;;6158431;23;20017;-64
2023/05/30 11:58:16;;;;;;;0.80;0.28;;;15.60;67.80;;;;;;6159134;23;20040;-65
2023/05/30 12:00:42;;;;;;;1.52;0.35;;;15.60;67.80;;;;;;6158996;23;20115;-65
2023/05/30 12:03:18;;;;;;;1.15;0.35;;;15.60;67.80;;;;;;6158370;23;20028;-65
2023/05/30 12:05:45;;;;;;;1.27;0.32;;;15.60;67.80;;;;;;6158117;23;20022;-65
2023/05/30 12:08:13;;;;;;;0.70;0.40;;;15.60;68.40;;;;;;6158561;23;20021;-65
2023/05/30 12:10:38;;;;;;;0.73;0.30;;;15.60;67.80;;;;;;6159425;23;20377;-65
2023/05/30 12:13:06;;;;;;;1.58;0.38;;;15.60;67.80;;;;;;6158247;23;20021;-65
2023/05/30 12:15:32;;;;;;;1.42;0.30;;;15.60;67.80;;;;;;6158634;23;20099;-65
2023/05/30 12:18:01;;;;;;;1.50;0.35;;;15.70;67.90;;;;;;6157855;23;20450;-65
2023/05/30 12:20:27;;;;;;;2.13;0.43;;;15.70;67.90;;;;;;6158367;23;20077;-65
2023/05/30 12:22:53;;;;;;;0.20;0.20;;;15.70;67.80;;;;;;6158477;23;20406;-65
2023/05/30 12:25:27;;;;;;;2.70;0.30;;;15.70;67.80;;;;;;6158523;23;20033;-65
2023/05/30 12:27:55;;;;;;;0.70;0.25;;;15.70;67.80;;;;;;6158317;23;20013;-65
2023/05/30 12:30:22;;;;;;;1.85;0.40;;;15.70;67.80;;;;;;6158678;23;20018;-65
2023/05/30 12:32:48;;;;;;;0.68;0.40;;;15.70;67.70;;;;;;6158261;23;20021;-65
2023/05/30 12:35:17;;;;;;;1.10;0.40;;;15.70;67.80;;;;;;6158282;23;20024;-65
2023/05/30 12:37:43;;;;;;;1.42;0.30;;;15.70;67.70;;;;;;6132223;23;20032;-65
2023/05/30 12:40:09;;;;;;;1.60;0.40;;;15.70;67.70;;;;;;6158920;23;20021;-64
2023/05/30 12:42:38;;;;;;;1.27;0.52;;;15.70;67.60;;;;;;6158286;23;20017;-65
2023/05/30 12:45:06;;;;;;;0.80;0.20;;;15.70;67.70;;;;;;6158547;23;20018;-65
2023/05/30 12:47:35;;;;;;;0.80;0.35;;;15.70;67.60;;;;;;6158309;23;20087;-65
2023/05/30 12:50:00;;;;;;;0.82;0.30;;;15.70;67.60;;;;;;6158254;23;20020;-64
2023/05/30 12:52:28;;;;;;;1.77;0.60;;;15.70;67.60;;;;;;6158753;23;20314;-65
2023/05/30 12:54:55;;;;;;;0.68;0.15;;;15.70;67.60;;;;;;6158339;23;20020;-65
2023/05/30 12:57:25;;;;;;;0.98;0.50;;;15.70;67.60;;;;;;6158154;23;20100;-65
2023/05/30 12:59:55;;;;;;;1.25;0.40;;;15.80;67.60;;;;;;6158803;23;20018;-65
2023/05/30 13:02:24;;;;;;;1.35;0.30;;;15.70;67.60;;;;;;6133496;23;20283;-65
2023/05/30 13:04:51;;;;;;;0.73;0.40;;;15.80;67.60;;;;;;6157957;23;20021;-65
2023/05/30 13:07:17;;;;;;;0.95;0.40;;;15.80;67.60;;;;;;6158081;23;20022;-65
2023/05/30 13:09:42;;;;;;;1.00;0.52;;;15.80;67.60;;;;;;6158316;23;20024;-65
2023/05/30 13:12:08;;;;;;;0.63;0.30;;;15.80;67.60;;;;;;6132687;23;20025;-65
2023/05/30 13:14:38;;;;;;;0.73;0.40;;;15.80;67.70;;;;;;6157780;23;20014;-65
2023/05/30 13:17:05;;;;;;;0.98;0.30;;;15.80;67.70;;;;;;6158932;23;20342;-65
2023/05/30 13:19:31;;;;;;;0.60;0.28;;;15.80;67.70;;;;;;6157846;23;20096;-65
2023/05/30 13:21:57;;;;;;;0.63;0.30;;;15.80;67.70;;;;;;6158034;23;20101;-65
2023/05/30 13:24:23;;;;;;;0.70;0.22;;;15.80;67.70;;;;;;6157696;23;20032;-65
2023/05/30 13:26:49;;;;;;;0.32;0.30;;;15.80;67.60;;;;;;6157937;23;20017;-65
2023/05/30 13:29:15;;;;;;;0.82;0.30;;;15.80;67.60;;;;;;6158139;23;20060;-64
2023/05/30 13:31:40;;;;;;;0.85;0.28;;;15.80;67.60;;;;;;6157819;23;20014;-65
2023/05/30 13:34:06;;;;;;;1.55;0.40;;;15.80;67.60;;;;;;6158235;23;20032;-65
2023/05/30 13:36:32;;;;;;;0.57;0.30;;;15.80;67.60;;;;;;6157793;23;20022;-64
2023/05/30 13:38:58;;;;;;;0.68;0.28;;;15.80;67.70;;;;;;6157756;23;20018;-65
2023/05/30 13:41:25;;;;;;;0.45;0.30;;;15.80;67.70;;;;;;6156847;23;20040;-65
2023/05/30 13:43:52;;;;;;;0.73;0.30;;;15.80;67.60;;;;;;6157036;23;20496;-65
2023/05/30 13:46:18;;;;;;;0.70;0.30;;;15.90;67.70;;;;;;6157437;23;20018;-65
2023/05/30 13:48:44;;;;;;;0.50;0.30;;;15.80;67.60;;;;;;6157890;23;20018;-65
2023/05/30 13:51:10;;;;;;;1.33;0.30;;;15.90;67.60;;;;;;6157919;23;20419;-65
2023/05/30 13:53:36;;;;;;;0.82;0.30;;;15.90;67.60;;;;;;6157732;23;20105;-65
2023/05/30 13:56:02;;;;;;;0.80;0.38;;;15.90;67.60;;;;;;6157659;23;20022;-65
2023/05/30 13:58:28;;;;;;;0.22;0.20;;;15.90;67.60;;;;;;6157549;23;20100;-65
2023/05/30 14:00:54;;;;;;;1.25;0.57;;;15.90;67.60;;;;;;6157728;23;20018;-65
2023/05/30 14:03:20;;;;;;;1.42;0.28;;;15.90;67.60;;;;;;6157546;23;20318;-65
2023/05/30 14:05:47;;;;;;;0.90;0.40;;;15.90;67.60;;;;;;6157114;23;20056;-66
2023/05/30 14:08:12;;;;;;;0.75;0.30;;;15.90;67.60;;;;;;6157155;23;20422;-65
2023/05/30 14:10:38;;;;;;;0.52;0.30;;;15.90;67.70;;;;;;6157957;23;20100;-65
2023/05/30 14:13:05;;;;;;;0.70;0.20;;;15.90;67.70;;;;;;6131533;23;20097;-65
2023/05/30 14:15:32;;;;;;;1.60;0.68;;;15.90;67.70;;;;;;6157557;23;20068;-64
2023/05/30 14:17:59;;;;;;;1.52;0.40;;;15.90;67.80;;;;;;6157617;23;20029;-64
2023/05/30 14:20:24;;;;;;;2.63;0.43;;;15.90;67.80;;;;;;6157611;23;20117;-65
2023/05/30 14:22:51;;;;;;;1.23;0.47;;;15.90;68.00;;;;;;6156819;23;20015;-66
2023/05/30 14:25:17;;;;;;;1.02;0.32;;;15.90;68.00;;;;;;6158111;23;20096;-65
2023/05/30 14:27:45;;;;;;;1.42;0.40;;;15.90;67.90;;;;;;6159757;23;20067;-65
2023/05/30 14:30:16;;;;;;;2.35;0.38;;;15.90;68.00;;;;;;6159623;23;20307;-65
2023/05/30 14:32:42;;;;;;;0.77;0.45;;;15.90;68.00;;;;;;6159753;23;20021;-65
2023/05/30 14:35:09;;;;;;;1.40;0.38;;;15.90;68.00;;;;;;6159519;23;20020;-65
2023/05/30 14:37:35;;;;;;;0.73;0.40;;;15.90;68.00;;;;;;6159154;23;20543;-65
2023/05/30 14:40:02;;;;;;;1.48;0.45;;;15.90;68.00;;;;;;6159306;23;20024;-65
2023/05/30 14:42:28;;;;;;;0.43;0.28;;;15.90;67.90;;;;;;6159428;23;20418;-66
2023/05/30 14:44:54;;;;;;;1.40;0.50;;;15.90;67.90;;;;;;6159376;23;20018;-65
2023/05/30 14:47:21;;;;;;;1.05;0.40;;;15.90;67.90;;;;;;6159150;23;20195;-65
2023/05/30 14:49:48;;;;;;;0.57;0.30;;;15.90;67.80;;;;;;6155422;23;20018;-66
2023/05/30 14:52:14;;;;;;;0.80;0.43;;;15.90;67.80;;;;;;6108859;23;20024;-65
2023/05/30 14:54:40;;;;;;;1.65;0.40;;;15.90;67.80;;;;;;6158846;23;20426;-65
2023/05/30 14:57:07;;;;;;;1.13;0.50;;;15.90;67.80;;;;;;6157819;23;20021;-65
2023/05/30 14:59:33;;;;;;;0.98;0.40;;;15.90;67.80;;;;;;6158167;23;20426;-64
2023/05/30 15:01:59;;;;;;;0.70;0.43;;;15.90;67.80;;;;;;6159212;23;20032;-65
2023/05/30 15:04:26;;;;;;;1.60;0.50;;;15.90;67.80;;;;;;6159379;23;20030;-64
2023/05/30 15:06:53;;;;;;;1.95;0.60;;;15.90;67.70;;;;;;6159643;23;20021;-65
2023/05/30 15:09:19;;;;;;;1.55;0.70;;;15.90;67.70;;;;;;6158845;23;20032;-65
2023/05/30 15:11:46;;;;;;;0.82;0.30;;;15.90;67.70;;;;;;6158821;23;20028;-65
2023/05/30 15:14:12;;;;;;;1.35;0.63;;;15.90;67.60;;;;;;6158690;23;20497;-65
2023/05/30 15:16:38;;;;;;;0.85;0.40;;;15.90;67.60;;;;;;6158932;23;20027;-65
2023/05/30 15:19:04;;;;;;;0.63;0.40;;;15.90;67.60;;;;;;6159002;23;20014;-65
2023/05/30 15:21:32;;;;;;;1.67;0.43;;;15.90;67.60;;;;;;6157471;23;20030;-66
2023/05/30 15:23:59;;;;;;;2.90;0.40;;;15.90;67.60;;;;;;6159250;23;20017;-65
2023/05/30 15:26:25;;;;;;;0.98;0.40;;;16.00;67.70;;;;;;6158998;23;20100;-65
2023/05/30 15:28:51;;;;;;;1.25;0.32;;;16.00;67.70;;;;;;6159384;23;20049;-65
2023/05/30 15:31:19;;;;;;;1.23;0.50;;;16.00;67.60;;;;;;6133383;23;20310;-65
2023/05/30 15:33:45;;;;;;;1.63;0.57;;;16.00;67.70;;;;;;6159316;23;20021;-65
2023/05/30 15:36:11;;;;;;;1.13;0.50;;;16.00;67.70;;;;;;6158517;23;20057;-65
2023/05/30 15:38:37;;;;;;;2.03;0.50;;;15.90;67.60;;;;;;6158821;23;20100;-65
2023/05/30 15:41:02;;;;;;;1.92;0.60;;;16.00;67.50;;;;;;6158902;23;20088;-65
2023/05/30 15:43:28;;;;;;;1.55;0.80;;;16.00;67.50;;;;;;6133877;23;20021;-65
2023/05/30 15:45:54;;;;;;;2.15;0.50;;;16.00;67.50;;;;;;6158485;23;20022;-65
2023/05/30 15:48:20;;;;;;;0.60;0.32;;;16.00;67.50;;;;;;6158823;23;20018;-65
2023/05/30 15:50:46;;;;;;;2.30;0.70;;;16.00;67.50;;;;;;6159588;23;20403;-64
2023/05/30 15:53:12;;;;;;;1.52;0.73;;;16.00;67.40;;;;;;6159066;23;20137;-65
2023/05/30 15:55:38;;;;;;;1.02;0.30;;;16.00;67.40;;;;;;6158640;23;20017;-65
2023/05/30 15:58:04;;;;;;;1.52;0.60;;;16.00;67.40;;;;;;6159264;23;20024;-65
2023/05/30 16:00:30;;;;;;;1.10;0.55;;;16.00;67.40;;;;;;6158506;23;20022;-64
2023/05/30 16:02:56;;;;;;;1.40;0.43;;;16.00;67.30;;;;;;6159339;23;20017;-65
2023/05/30 16:05:21;;;;;;;1.00;0.50;;;16.00;67.30;;;;;;6158371;23;20445;-65
2023/05/30 16:07:47;;;;;;;0.85;0.40;;;16.00;67.30;;;;;;6158589;23;20045;-65
2023/05/30 16:10:13;;;;;;;1.92;0.70;;;16.00;67.30;;;;;;6158549;23;20028;-65
2023/05/30 16:12:39;;;;;;;1.27;0.52;;;16.00;67.30;;;;;;6132413;23;20033;-65
2023/05/30 16:15:05;;;;;;;2.45;0.60;;;16.00;67.30;;;;;;6158560;23;20061;-65
2023/05/30 16:17:31;;;;;;;2.15;0.70;;;16.00;67.30;;;;;;6158929;23;20025;-65
2023/05/30 16:19:57;;;;;;;1.42;0.77;;;16.00;67.30;;;;;;6132338;23;20156;-65
2023/05/30 16:22:23;;;;;;;1.27;0.50;;;16.00;67.30;;;;;;6158467;23;20028;-65
2023/05/30 16:24:49;;;;;;;1.77;0.80;;;16.00;67.30;;;;;;6158822;23;20020;-65
2023/05/30 16:27:15;;;;;;;1.83;0.50;;;16.00;67.30;;;;;;6158805;23;20307;-65
2023/05/30 16:29:41;;;;;;;1.52;0.80;;;16.00;67.30;;;;;;6159210;23;20306;-65
2023/05/30 16:32:07;;;;;;;1.63;0.70;;;16.00;67.30;;;;;;6159111;23;20021;-65
2023/05/30 16:34:32;;;;;;;1.73;0.57;;;16.00;67.30;;;;;;6158029;23;20032;-66
2023/05/30 16:36:58;;;;;;;1.77;0.82;;;16.00;67.30;;;;;;6132667;23;20096;-65
2023/05/30 16:39:25;;;;;;;3.65;0.98;;;16.00;67.50;;;;;;6132602;23;20021;-64
2023/05/30 16:41:51;;;;;;;4.18;1.10;;;15.90;67.60;;;;;;6109243;23;20356;-65
2023/05/30 16:44:16;;;;;;;2.03;0.63;;;15.90;67.70;;;;;;6158530;23;20073;-65
2023/05/30 16:46:42;;;;;;;3.17;0.77;;;15.90;67.70;;;;;;6157853;23;20025;-64
2023/05/30 16:49:10;;;;;;;3.60;1.23;;;15.90;67.70;;;;;;6158339;23;20024;-64
2023/05/30 16:51:36;;;;;;;3.88;1.10;;;15.90;67.70;;;;;;6158296;23;20056;-64
2023/05/30 16:54:02;;;;;;;2.22;0.80;;;15.90;67.60;;;;;;6157825;23;20434;-65
2023/05/30 16:56:27;;;;;;;6.18;1.10;;;15.90;67.50;;;;;;6158718;23;20021;-65
2023/05/30 16:58:54;;;;;;;2.85;1.48;;;15.90;67.40;;;;;;6132541;23;20093;-66
2023/05/30 17:01:20;;;;;;;1.67;0.77;;;15.90;67.40;;;;;;6158073;23;20028;-65
2023/05/30 17:03:47;;;;;;;1.73;0.80;;;15.90;67.40;;;;;;6158112;23;20014;-65
2023/05/30 17:06:15;;;;;;;2.60;0.80;;;15.90;67.30;;;;;;6158274;23;20022;-65
2023/05/30 17:08:42;;;;;;;2.83;0.60;;;15.90;67.20;;;;;;6158077;23;20319;-65
2023/05/30 17:11:11;;;;;;;3.75;0.88;;;15.90;67.20;;;;;;6158045;23;20033;-64
2023/05/30 17:13:37;;;;;;;1.85;0.93;;;15.90;67.10;;;;;;6157929;23;20018;-65
2023/05/30 17:16:03;;;;;;;2.67;0.80;;;15.90;67.00;;;;;;6157997;23;20049;-65
2023/05/30 17:18:29;;;;;;;1.65;0.75;;;15.90;66.90;;;;;;6157596;23;20096;-64
2023/05/30 17:20:55;;;;;;;1.38;0.68;;;15.90;66.80;;;;;;6158017;23;20057;-65
2023/05/30 17:23:21;;;;;;;2.88;0.85;;;15.90;66.80;;;;;;6158518;23;20395;-65
2023/05/30 17:25:46;;;;;;;1.92;0.77;;;15.80;66.70;;;;;;6157474;23;20013;-65
2023/05/30 17:28:12;;;;;;;1.92;0.77;;;15.90;66.70;;;;;;6132879;23;20017;-65
2023/05/30 17:30:38;;;;;;;3.83;1.20;;;15.90;66.70;;;;;;6107457;23;20025;-65
2023/05/30 17:33:07;;;;;;;1.83;1.02;;;15.80;66.70;;;;;;6157576;23;20081;-65
2023/05/30 17:35:33;;;;;;;1.63;0.88;;;15.80;66.80;;;;;;6158106;23;20017;-65
2023/05/30 17:37:59;;;;;;;1.33;0.80;;;15.80;66.80;;;;;;6157785;23;20021;-65
2023/05/30 17:40:26;;;;;;;1.63;0.80;;;15.80;66.80;;;;;;6133109;23;20407;-65
2023/05/30 17:42:52;;;;;;;1.67;0.90;;;15.80;66.80;;;;;;6157878;23;20017;-65
2023/05/30 17:45:18;;;;;;;2.80;1.05;;;15.80;66.70;;;;;;6157790;23;20109;-65
2023/05/30 17:47:44;;;;;;;2.28;0.98;;;15.80;66.80;;;;;;6158194;23;20423;-65
2023/05/30 17:50:10;;;;;;;3.28;1.10;;;15.80;66.70;;;;;;6157771;23;20014;-65
2023/05/30 17:52:37;;;;;;;1.90;0.77;;;15.80;66.80;;;;;;6157864;23;20025;-65
2023/05/30 17:55:03;;;;;;;1.95;0.77;;;15.80;66.80;;;;;;6131819;23;20022;-65
2023/05/30 17:57:29;;;;;;;2.13;1.10;;;15.80;66.80;;;;;;6158519;23;20302;-65
2023/05/30 17:59:55;;;;;;;1.95;0.80;;;15.80;66.70;;;;;;6158216;23;20025;-65
2023/05/30 18:02:21;;;;;;;2.45;1.20;;;15.80;66.80;;;;;;6159732;23;20056;-65
2023/05/30 18:04:47;;;;;;;2.28;1.17;;;15.80;66.80;;;;;;6159524;23;20032;-65
2023/05/30 18:07:13;;;;;;;1.77;1.08;;;15.80;66.90;;;;;;6160423;23;20025;-66
2023/05/30 18:09:38;;;;;;;2.53;1.10;;;15.80;66.90;;;;;;6134861;23;20021;-65
2023/05/30 18:12:07;;;;;;;2.50;1.50;;;15.80;67.00;;;;;;6160126;23;20021;-65
2023/05/30 18:14:33;;;;;;;4.28;1.58;;;15.80;67.00;;;;;;6159790;23;20021;-65
2023/05/30 18:16:59;;;;;;;3.00;1.15;;;15.80;67.10;;;;;;6160022;23;20358;-65
2023/05/30 18:19:24;;;;;;;2.65;1.35;;;15.80;67.10;;;;;;6159400;23;20018;-65
2023/05/30 18:21:50;;;;;;;3.60;1.17;;;15.80;67.10;;;;;;6133867;23;20017;-64
2023/05/30 18:24:16;;;;;;;3.55;1.20;;;15.80;67.20;;;;;;6159680;23;20029;-64
2023/05/30 18:26:42;;;;;;;3.72;1.42;;;15.80;67.30;;;;;;6159034;23;20013;-65
2023/05/30 18:29:08;;;;;;;3.13;1.17;;;15.80;67.40;;;;;;6159666;23;20484;-64
2023/05/30 18:31:34;;;;;;;3.13;1.33;;;15.80;67.40;;;;;;6159426;23;20080;-65
2023/05/30 18:34:00;;;;;;;3.00;1.08;;;15.70;67.40;;;;;;6159496;23;20021;-66
2023/05/30 18:36:25;;;;;;;3.53;1.13;;;15.70;67.40;;;;;;6159260;23;20100;-65
2023/05/30 18:38:54;;;;;;;2.28;1.30;;;15.70;67.40;;;;;;6133083;23;20064;-65
2023/05/30 18:41:21;;;;;;;5.85;1.40;;;15.70;67.50;;;;;;6159125;23;20339;-64
2023/05/30 18:43:46;;;;;;;4.20;1.30;;;15.70;67.50;;;;;;6159176;23;20053;-64
2023/05/30 18:46:14;;;;;;;3.95;1.95;;;15.70;67.50;;;;;;6159136;23;20017;-65
2023/05/30 18:48:41;;;;;;;3.10;1.05;;;15.80;67.40;;;;;;6159312;23;20022;-65
2023/05/30 18:51:07;;;;;;;3.72;1.55;;;15.80;67.40;;;;;;6158528;23;20431;-65
2023/05/30 18:53:33;;;;;;;2.58;1.30;;;15.80;67.40;;;;;;6158825;23;20032;-65
2023/05/30 18:56:00;;;;;;;2.35;1.15;;;15.80;67.50;;;;;;6159232;23;20028;-65
2023/05/30 18:58:27;;;;;;;1.75;0.88;;;15.80;67.50;;;;;;6158713;23;20304;-65
2023/05/30 19:00:54;;;;;;;2.92;1.25;;;15.80;67.50;;;;;;6159006;23;20045;-65
2023/05/30 19:03:20;;;;;;;2.60;0.82;;;15.80;67.50;;;;;;6158766;23;20017;-65
2023/05/30 19:05:45;;;;;;;3.17;1.38;;;15.80;67.50;;;;;;6159051;23;20131;-66
2023/05/30 19:08:11;;;;;;;2.17;1.23;;;15.80;67.50;;;;;;6159004;23;20088;-66
2023/05/30 19:10:38;;;;;;;3.80;1.42;;;15.80;67.40;;;;;;6158996;23;20316;-65
2023/05/30 19:13:04;;;;;;;5.03;1.35;;;15.90;67.50;;;;;;6158164;23;20069;-64
2023/05/30 19:15:30;;;;;;;3.83;1.05;;;15.80;67.50;;;;;;6132892;23;20017;-65
2023/05/30 19:17:56;;;;;;;3.92;1.40;;;15.90;67.80;;;;;;6158699;23;20099;-64
2023/05/30 19:20:24;;;;;;;4.30;1.42;;;15.90;67.90;;;;;;6133011;23;20053;-65
2023/05/30 19:22:50;;;;;;;6.00;1.42;;;15.90;67.80;;;;;;6159714;23;20017;-66
2023/05/30 19:25:16;;;;;;;4.65;1.50;;;15.90;67.70;;;;;;6158944;23;20040;-65
2023/05/30 19:27:42;;;;;;;3.90;1.27;;;15.90;67.60;;;;;;6159404;23;20084;-66
2023/05/30 19:30:08;;;;;;;2.90;1.25;;;15.90;67.70;;;;;;6158969;23;20017;-66
2023/05/30 19:32:34;;;;;;;6.13;1.58;;;16.00;67.70;;;;;;6158969;23;20025;-65
2023/05/30 19:35:00;;;;;;;8.07;1.27;;;16.00;67.70;;;;;;6158487;23;20013;-65
2023/05/30 19:37:26;;;;;;;7.07;1.58;;;16.00;67.60;;;;;;6159213;23;20036;-66
2023/05/30 19:39:51;;;;;;;4.82;1.33;;;16.00;67.60;;;;;;6158128;23;20025;-66
2023/05/30 19:42:17;;;;;;;9.02;1.15;;;16.00;67.70;;;;;;6158519;23;20415;-66
2023/05/30 19:44:43;;;;;;;7.57;1.60;;;16.00;67.80;;;;;;6132786;23;20053;-66
2023/05/30 19:47:09;;;;;;;12.10;1.70;;;16.00;67.80;;;;;;6158386;23;20092;-65
2023/05/30 19:49:35;;;;;;;7.10;1.42;;;16.00;67.80;;;;;;6158410;23;20064;-66
2023/05/30 19:52:01;;;;;;;8.68;1.50;;;16.00;67.80;;;;;;6158616;23;20029;-66
2023/05/30 19:54:27;;;;;;;8.40;1.92;;;16.00;67.90;;;;;;6158394;23;20028;-66